LFCR/RDZ METAR and TAF weather

Enter ICAO airport designator
Station Type Date Time Source
LFCR METAR 2019/08/22 10:00 UTC NOAA

LFCR 221000Z AUTO VRB02KT CAVOK 21/13 Q1024 NOSIG


Station Type Date Time Source
LFCR Decoded METAR 2019/08/22 10:00 UTC NOAA

Station name not available
Aug 22, 2019 - 06:00 AM EDT / 2019.08.22 1000 UTC
Wind: Variable at 2 MPH (2 KT):0
Visibility: greater than 7 mile(s):0
Temperature: 69 F (21 C)
Dew Point: 55 F (13 C)
Relative Humidity: 60%
Pressure (altimeter): 30.24 in. Hg (1024 hPa)
ob: LFCR 221000Z AUTO VRB02KT CAVOK 21/13 Q1024 NOSIG
cycle: 10

Station Type Date Time Source
LFCR TAF 2019/08/22 06:21 UTC NOAA

TAF LFCR 220500Z 2206/2306 VRB02KT CAVOK
TEMPO 2212/2218 31006KT

Example: see airport list